Airfield :
LOGIN :

Register | Disclaimer

   EN    FR    IT 

 










Legend :    VFR   Marginal VFR   IFR   Intensive IFR   Very Intensive IFR
Visi :
Ceiling :
>= 8 km
>= 3000ft
5 to 8 km
1000 to 3000 ft
1500m to 5 km
500 to 1000 ft
800 to 1500m
200 to 500 ft
< 800m
< 200 ft
Symbols :   Thunderstorms  Fog  Heavy snow  Heavy precipitations  Wind > 20 kt
SIGMETs :     Misc.  Thunderstorms  Icing  Turbulence  Mountain Waves  Volcanic Ashes






- Airport Elevation : 642 ft
- IATA code : RVN


EFRO - Rovaniemi

CURRENT METAR :
  • 050250Z AUTO 07008KT CAVOK 13/04 Q1007

EXPIRED METARs :
  • 050220Z AUTO 06007KT CAVOK 13/05 Q1007
  • 050150Z AUTO 05011KT CAVOK 13/05 Q1007
  • 050120Z AUTO 06011KT CAVOK 13/05 Q1007
  • 050050Z AUTO 06007KT CAVOK 14/05 Q1008
  • 050020Z AUTO 06006KT CAVOK 14/06 Q1008

TAF TAF EFRO
Valid from the 05 at 03:00 until the 06 at 03:00 UTC


050223Z 0503/0603 04013KT 9999 -RA BKN045
PROB30
TEMPO 0506/0509 RA
TEMPO 0509/0515 5000 RA BKN005
BECMG 0515/0517 10008KT BKN003
TEMPO 0515/0518 2000 -RADZ
TEMPO 0518/0521 1000 PRFG BKN001
TEMPO 0521/0603 4000 BR FEW005 FEW040CB



MET'MAP, your aeronautical weather chart ! - Copyright ORBIFLY December 2007 - Disclaimer

ORBIFLY MET'MAP TEAM :

Programming & Development : Alexandra Zaïnal
Concept & original design : Baudouin d'Aumeries
Assistance for programming : Marc-Olivier Méhu
Technical & hardware support : Manuel Goepfert

Contact : metmap@orbifly.com




SOURCES & CREDITS :

   NOAA